Time;durP1;ratioP1;P1;durP2;ratioP2;P2;SDS_P1;SDS_P2;PMS_P1;PMS_P2;Temp;Humidity;BMP_temperature;BMP_pressure;BME280_temperature;BME280_humidity;BME280_pressure;Samples;Min_cycle;Max_cycle;Signal;HPM_P1;HPM_P2
2022/08/21 00:00:06;;;;;;;0.50;0.50;;;15.70;1.40;;;16.51;100.00;95483.91;618879;226;31819;-72
2022/08/21 00:02:48;;;;;;;0.60;0.60;;;15.80;1.40;;;16.43;100.00;95483.22;650412;212;31530;-72
2022/08/21 00:05:29;;;;;;;0.40;0.20;;;15.70;1.40;;;16.43;100.00;95485.27;646595;216;31581;-71
2022/08/21 00:08:11;;;;;;;0.50;0.35;;;15.60;1.40;;;16.44;100.00;95489.18;646492;216;31481;-72
2022/08/21 00:10:54;;;;;;;0.40;0.40;;;15.60;1.40;;;16.39;100.00;95486.27;647348;212;32174;-72
2022/08/21 00:13:35;;;;;;;0.40;0.30;;;15.60;1.40;;;16.37;100.00;95483.86;648293;216;31512;-72
2022/08/21 00:16:17;;;;;;;0.68;0.40;;;15.50;1.40;;;16.37;100.00;95481.27;638656;212;31629;-72
2022/08/21 00:18:59;;;;;;;0.40;0.20;;;15.60;1.40;;;16.35;100.00;95479.02;647970;212;31999;-72
2022/08/21 00:21:41;;;;;;;0.40;0.20;;;15.50;1.40;;;16.29;100.00;95481.33;646204;212;31512;-72
2022/08/21 00:24:22;;;;;;;0.40;0.20;;;15.50;1.40;;;16.32;100.00;95480.87;645289;216;31483;-72
2022/08/21 00:27:06;;;;;;;0.50;0.40;;;15.50;1.40;;;16.28;100.00;95479.77;646325;216;31868;-72
2022/08/21 00:29:53;;;;;;;0.68;0.47;;;15.50;1.40;;;16.22;100.00;95479.94;646660;216;31484;-71
2022/08/21 00:32:33;;;;;;;0.40;0.20;;;15.40;1.40;;;16.22;100.00;95475.55;647109;216;32243;-72
2022/08/21 00:35:51;;;;;;;1.30;1.08;;;15.50;1.40;;;16.18;100.00;95476.09;646145;216;31459;-72
2022/08/21 00:38:33;;;;;;;0.45;0.45;;;15.50;1.40;;;16.20;100.00;95475.58;644524;216;32118;-70
2022/08/21 00:41:15;;;;;;;0.40;0.20;;;15.50;1.40;;;16.16;100.00;95474.64;618795;222;32121;-71
2022/08/21 00:43:57;;;;;;;0.40;0.20;;;15.40;1.40;;;16.13;100.00;95470.76;617547;226;31809;-71
2022/08/21 00:46:38;;;;;;;0.40;0.20;;;15.40;1.40;;;16.10;100.00;95472.94;645546;216;31480;-72
2022/08/21 00:49:23;;;;;;;0.60;0.50;;;15.30;1.40;;;16.04;100.00;95476.66;620951;226;32550;-73
2022/08/21 00:52:05;;;;;;;0.40;0.30;;;15.30;1.40;;;16.07;100.00;95474.05;644288;216;31470;-72
2022/08/21 00:54:46;;;;;;;0.40;0.20;;;15.30;1.40;;;16.03;100.00;95473.36;647110;216;31480;-72
2022/08/21 00:57:30;;;;;;;2.17;0.65;;;15.30;1.40;;;16.05;100.00;95475.31;647147;216;31992;-72
2022/08/21 01:00:12;;;;;;;0.70;0.52;;;15.30;1.40;;;16.06;100.00;95473.80;649427;216;31835;-73
2022/08/21 01:02:53;;;;;;;0.30;0.22;;;15.30;1.40;;;16.03;100.00;95468.39;648189;212;31456;-73
2022/08/21 01:05:35;;;;;;;0.50;0.20;;;15.30;1.40;;;16.01;100.00;95467.88;649755;216;31485;-71
2022/08/21 01:10:41;;;;;;;0.40;0.20;;;15.20;1.40;;;15.91;100.00;95461.88;645691;216;31463;-73
2022/08/21 01:13:23;;;;;;;0.40;0.30;;;15.20;1.40;;;15.90;100.00;95459.97;647255;216;31475;-71
2022/08/21 01:16:04;;;;;;;0.80;0.60;;;15.20;1.40;;;15.91;100.00;95461.46;638619;212;32889;-72
2022/08/21 01:18:47;;;;;;;0.40;0.30;;;15.10;1.40;;;15.81;100.00;95454.42;648910;212;31490;-72
2022/08/21 01:21:28;;;;;;;0.40;0.40;;;15.10;1.40;;;15.81;100.00;95458.81;646840;216;31490;-74
2022/08/21 01:24:09;;;;;;;0.40;0.20;;;15.10;1.40;;;15.76;100.00;95456.88;645691;216;31705;-72
2022/08/21 01:26:51;;;;;;;0.47;0.47;;;15.00;1.40;;;15.79;100.00;95457.69;645561;216;31828;-72
2022/08/21 01:29:36;;;;;;;0.50;0.40;;;15.00;1.40;;;15.78;100.00;95456.33;648232;216;31936;-72
2022/08/21 01:32:18;;;;;;;0.45;0.40;;;15.10;1.40;;;15.73;100.00;95456.55;647312;216;31488;-71
2022/08/21 01:35:57;;;;;;;0.40;0.20;;;14.90;1.40;;;15.66;100.00;95456.30;647372;216;31462;-71
2022/08/21 01:38:39;;;;;;;0.50;0.40;;;14.90;1.40;;;15.59;100.00;95455.17;645707;216;31460;-72
2022/08/21 01:41:21;;;;;;;0.40;0.20;;;14.80;1.40;;;15.55;100.00;95454.44;643926;216;31816;-72
2022/08/21 01:44:02;;;;;;;0.40;0.30;;;14.80;1.40;;;15.55;100.00;95454.11;647356;216;31500;-73
2022/08/21 01:46:49;;;;;;;0.47;0.40;;;14.80;1.40;;;15.50;100.00;95459.53;599348;233;32265;-72
2022/08/21 01:49:31;;;;;;;0.47;0.32;;;14.70;1.40;;;15.50;100.00;95455.55;646521;212;31525;-72
2022/08/21 01:52:16;;;;;;;0.70;0.30;;;14.70;1.40;;;15.46;100.00;95460.83;647647;216;31485;-72
2022/08/21 01:54:57;;;;;;;0.40;0.35;;;14.70;1.40;;;15.46;100.00;95455.88;645805;216;31470;-72
2022/08/21 01:57:42;;;;;;;1.00;0.28;;;14.70;1.40;;;15.44;100.00;95448.92;647721;216;31591;-72
2022/08/21 02:00:24;;;;;;;0.50;0.50;;;14.70;1.40;;;15.40;100.00;95450.19;646562;216;31470;-72
2022/08/21 02:03:06;;;;;;;0.50;0.40;;;14.60;1.40;;;15.33;100.00;95448.05;647055;216;31483;-73
2022/08/21 02:05:47;;;;;;;0.40;0.20;;;14.50;1.40;;;15.32;100.00;95443.00;645308;216;31482;-72
2022/08/21 02:08:29;;;;;;;0.40;0.30;;;14.60;1.40;;;15.31;100.00;95440.44;617913;226;31979;-72
2022/08/21 02:11:11;;;;;;;0.40;0.40;;;14.50;1.40;;;15.27;100.00;95442.16;644375;216;31510;-72
2022/08/21 02:13:54;;;;;;;0.40;0.40;;;14.50;1.40;;;15.21;100.00;95434.22;648017;216;31476;-71
2022/08/21 02:16:36;;;;;;;0.40;0.20;;;14.40;1.40;;;15.22;100.00;95429.47;651098;216;31456;-72
2022/08/21 02:19:20;;;;;;;0.60;0.40;;;14.40;1.40;;;15.20;100.00;95429.48;648891;216;31516;-72
2022/08/21 02:22:02;;;;;;;0.30;0.20;;;14.40;1.40;;;15.17;100.00;95425.72;647718;212;31496;-72
2022/08/21 02:24:44;;;;;;;0.40;0.30;;;14.30;1.40;;;15.15;100.00;95426.56;645922;216;42096;-72
2022/08/21 02:27:25;;;;;;;0.40;0.30;;;14.30;1.40;;;15.13;100.00;95429.03;650293;216;31855;-71
2022/08/21 02:30:09;;;;;;;0.85;0.25;;;14.20;1.40;;;15.11;100.00;95431.09;646309;216;31626;-71
2022/08/21 02:32:50;;;;;;;0.60;0.40;;;14.20;1.40;;;15.11;100.00;95434.82;648598;216;31492;-71
2022/08/21 02:35:53;;;;;;;0.60;0.60;;;14.20;1.40;;;15.06;100.00;95430.09;644866;216;31500;-71
2022/08/21 02:38:37;;;;;;;0.40;0.30;;;14.10;1.40;;;14.97;100.00;95432.75;646667;212;31633;-71
2022/08/21 02:41:16;;;;;;;1.10;0.60;;;14.10;1.40;;;14.97;100.00;95429.88;646634;216;42118;-71
2022/08/21 02:43:58;;;;;;;0.40;0.32;;;14.00;1.40;;;14.93;100.00;95432.89;647448;212;31502;-72
2022/08/21 02:46:39;;;;;;;1.40;0.80;;;14.00;1.40;;;14.91;100.00;95433.56;646234;216;31517;-72
2022/08/21 02:49:21;;;;;;;0.40;0.20;;;13.90;1.40;;;14.87;100.00;95432.58;643174;215;31607;-72
2022/08/21 02:52:05;;;;;;;0.90;0.77;;;13.80;1.40;;;14.87;100.00;95433.03;645221;216;31906;-72
2022/08/21 02:54:50;;;;;;;0.60;0.60;;;13.90;1.40;;;14.92;100.00;95434.68;646020;216;31930;-71
2022/08/21 02:57:32;;;;;;;0.40;0.20;;;14.00;1.40;;;15.02;100.00;95429.54;647244;216;31466;-73
2022/08/21 03:00:13;;;;;;;0.60;0.50;;;14.10;1.40;;;15.05;100.00;95426.55;649202;216;31501;-72
2022/08/21 03:02:55;;;;;;;0.40;0.30;;;14.20;1.40;;;15.11;100.00;95420.94;645742;216;32256;-72
2022/08/21 03:05:37;;;;;;;0.40;0.20;;;14.30;1.40;;;15.12;100.00;95422.42;646861;216;31479;-72
2022/08/21 03:08:18;;;;;;;0.40;0.40;;;14.30;1.40;;;15.16;100.00;95421.00;646876;216;31458;-72
2022/08/21 03:11:00;;;;;;;0.80;0.70;;;14.40;1.40;;;15.17;100.00;95420.77;645692;212;32177;-72
2022/08/21 03:13:42;;;;;;;0.50;0.50;;;14.40;1.40;;;15.15;100.00;95420.66;647047;216;31471;-72
2022/08/21 03:16:23;;;;;;;0.50;0.40;;;14.40;1.40;;;15.15;100.00;95419.52;610691;226;31995;-71
2022/08/21 03:19:05;;;;;;;0.40;0.30;;;14.40;1.40;;;15.14;100.00;95421.42;648867;216;31589;-71
2022/08/21 03:21:47;;;;;;;0.60;0.60;;;14.40;1.40;;;15.12;100.00;95426.73;646294;216;31478;-71
2022/08/21 03:24:29;;;;;;;0.70;0.50;;;14.30;1.40;;;15.11;100.00;95425.84;650473;212;31472;-71
2022/08/21 03:27:12;;;;;;;0.40;0.20;;;14.30;1.40;;;15.08;100.00;95429.09;646252;216;31571;-71
2022/08/21 03:29:52;;;;;;;0.40;0.20;;;14.20;1.40;;;15.02;100.00;95431.71;644208;216;31479;-71
2022/08/21 03:32:35;;;;;;;0.60;0.50;;;14.20;1.40;;;15.03;100.00;95431.33;647627;216;31460;-72
2022/08/21 03:35:56;;;;;;;0.40;0.30;;;14.20;1.40;;;14.98;100.00;95427.16;645577;216;32083;-72
2022/08/21 03:38:37;;;;;;;0.40;0.30;;;14.10;1.40;;;14.98;100.00;95423.39;649293;216;31762;-72
2022/08/21 03:41:19;;;;;;;0.40;0.30;;;14.20;1.40;;;14.97;100.00;95420.66;646903;216;31461;-72
2022/08/21 03:44:01;;;;;;;1.90;0.50;;;14.10;1.40;;;15.00;100.00;95421.57;645922;216;31640;-71
2022/08/21 03:46:44;;;;;;;0.40;0.40;;;14.30;1.40;;;14.97;100.00;95422.95;645887;212;31486;-71
2022/08/21 03:49:25;;;;;;;0.40;0.30;;;14.20;1.40;;;15.00;100.00;95421.86;646160;212;31458;-72
2022/08/21 03:52:07;;;;;;;0.57;0.52;;;14.20;1.40;;;15.08;100.00;95428.22;648549;212;31649;-72
2022/08/21 03:54:50;;;;;;;0.50;0.40;;;14.30;1.40;;;15.08;100.00;95430.68;646982;212;31473;-71
2022/08/21 03:57:30;;;;;;;0.60;0.40;;;14.30;1.40;;;15.12;100.00;95430.95;646554;216;31483;-72
2022/08/21 04:00:16;;;;;;;0.52;0.25;;;14.40;1.40;;;15.09;100.00;95432.98;650275;216;31497;-71
2022/08/21 04:02:57;;;;;;;0.40;0.30;;;14.30;1.40;;;15.12;100.00;95440.20;648051;216;31482;-71
2022/08/21 04:05:40;;;;;;;0.70;0.70;;;14.30;1.40;;;15.13;100.00;95443.09;645478;216;31563;-72
2022/08/21 04:08:21;;;;;;;0.40;0.20;;;14.40;1.40;;;15.12;100.00;95440.69;647456;216;31460;-71
2022/08/21 04:11:03;;;;;;;0.80;0.52;;;14.40;1.40;;;15.05;100.00;95439.62;646025;213;31571;-72
2022/08/21 04:13:44;;;;;;;0.50;0.45;;;14.30;1.40;;;15.03;100.00;95444.34;647992;216;31703;-72
2022/08/21 04:16:30;;;;;;;0.40;0.20;;;14.20;1.40;;;15.00;100.00;95444.84;636545;216;42827;-72
2022/08/21 04:21:49;;;;;;;0.40;0.30;;;14.20;1.40;;;15.02;100.00;95446.01;646537;216;31508;-71
2022/08/21 04:24:29;;;;;;;0.50;0.40;;;14.20;1.40;;;15.05;100.00;95448.67;645989;212;31503;-71
2022/08/21 04:27:11;;;;;;;0.40;0.30;;;14.30;1.40;;;15.00;100.00;95453.35;646867;216;31508;-71
2022/08/21 04:29:52;;;;;;;0.80;0.40;;;14.20;1.40;;;15.00;100.00;95450.61;645769;215;32858;-72
2022/08/21 04:32:37;;;;;;;0.40;0.30;;;14.30;1.40;;;15.00;100.00;95456.42;647520;212;31472;-71
2022/08/21 04:35:51;;;;;;;0.40;0.20;;;14.20;1.40;;;15.01;100.00;95453.48;647039;216;31496;-71
2022/08/21 04:38:33;;;;;;;0.50;0.30;;;14.20;1.40;;;15.00;100.00;95451.97;646453;216;31500;-71
2022/08/21 04:41:14;;;;;;;1.20;0.40;;;14.20;1.40;;;15.05;100.00;95455.11;646295;212;32056;-71
2022/08/21 04:43:59;;;;;;;0.60;0.40;;;14.20;1.40;;;15.03;100.00;95452.16;645465;216;31488;-72
2022/08/21 04:46:41;;;;;;;0.45;0.45;;;14.30;1.40;;;15.01;100.00;95459.59;645554;216;32070;-71
2022/08/21 04:49:33;;;;;;;0.40;0.20;;;14.20;1.40;;;15.00;100.00;95461.92;649665;216;31489;-72
2022/08/21 04:52:16;;;;;;;0.40;0.20;;;14.10;1.40;;;14.95;100.00;95462.55;647596;216;33546;-72
2022/08/21 04:54:58;;;;;;;0.40;0.30;;;13.90;1.40;;;14.85;100.00;95463.46;645295;216;31783;-72
2022/08/21 04:57:40;;;;;;;0.40;0.20;;;13.90;1.40;;;14.78;100.00;95465.27;645459;216;31487;-73
2022/08/21 05:00:21;;;;;;;0.40;0.20;;;13.90;1.40;;;14.77;100.00;95465.13;646218;216;31537;-72
2022/08/21 05:03:03;;;;;;;0.60;0.60;;;13.90;1.40;;;14.77;100.00;95467.05;647338;216;31594;-73
2022/08/21 05:08:23;;;;;;;0.50;0.50;;;13.80;1.40;;;14.82;100.00;95468.53;645910;212;31471;-72
2022/08/21 05:11:04;;;;;;;0.50;0.40;;;13.80;1.40;;;14.82;100.00;95469.59;647319;212;31494;-74
2022/08/21 05:13:46;;;;;;;0.40;0.20;;;13.70;1.40;;;14.89;100.00;95470.48;617798;226;31859;-72
2022/08/21 05:16:27;;;;;;;1.00;0.80;;;13.80;1.40;;;14.94;100.00;95466.16;637563;216;31726;-73
2022/08/21 05:19:09;;;;;;;0.40;0.20;;;13.90;1.40;;;15.17;100.00;95461.41;647897;216;31558;-73
2022/08/21 05:21:51;;;;;;;0.40;0.30;;;14.30;1.40;;;15.34;100.00;95463.31;645516;212;31481;-72
2022/08/21 05:24:33;;;;;;;0.40;0.40;;;14.60;1.40;;;15.60;100.00;95468.00;648711;212;31487;-73
2022/08/21 05:27:14;;;;;;;0.50;0.20;;;14.80;1.40;;;15.73;100.00;95467.95;645621;216;31925;-73
2022/08/21 05:30:01;;;;;;;0.40;0.20;;;15.00;1.40;;;15.90;100.00;95465.31;647318;216;32042;-73
2022/08/21 05:32:43;;;;;;;0.45;0.45;;;15.20;1.40;;;16.02;100.00;95469.77;620410;225;31808;-73
2022/08/21 05:35:52;;;;;;;0.40;0.30;;;15.30;1.40;;;16.11;100.00;95466.22;645614;212;31491;-72
2022/08/21 05:38:33;;;;;;;0.40;0.22;;;15.40;1.40;;;16.24;100.00;95471.55;645605;216;31499;-74
2022/08/21 05:41:15;;;;;;;0.40;0.20;;;15.50;1.40;;;16.30;100.00;95464.47;646765;216;31461;-74
2022/08/21 05:43:57;;;;;;;0.40;0.20;;;15.60;1.40;;;16.36;100.00;95466.91;644980;216;31493;-71
2022/08/21 05:46:38;;;;;;;0.40;0.40;;;15.60;1.40;;;16.44;100.00;95471.20;645976;216;32054;-72
2022/08/21 05:49:20;;;;;;;0.40;0.30;;;15.70;1.40;;;16.54;100.00;95475.11;647494;216;31495;-72
2022/08/21 05:52:02;;;;;;;0.50;0.43;;;15.80;1.40;;;16.68;100.00;95479.69;647159;216;31542;-71
2022/08/21 05:54:44;;;;;;;1.90;1.00;;;15.90;1.40;;;16.68;100.00;95480.27;647380;212;32018;-73
2022/08/21 05:59:59;;;;;;;0.60;0.30;;;16.00;1.40;;;16.78;100.00;95492.98;645770;212;31609;-72
2022/08/21 06:02:41;;;;;;;0.40;0.30;;;15.90;1.40;;;16.79;100.00;95489.50;645933;216;31465;-71
2022/08/21 06:05:23;;;;;;;0.50;0.40;;;16.00;1.40;;;16.88;100.00;95489.17;646661;216;31474;-72
2022/08/21 06:08:05;;;;;;;1.60;0.90;;;16.10;1.40;;;16.99;100.00;95487.14;647979;212;32009;-71
2022/08/21 06:10:47;;;;;;;0.82;0.75;;;16.30;1.40;;;17.09;100.00;95486.72;650412;216;31558;-71
2022/08/21 06:13:28;;;;;;;1.10;0.40;;;16.40;1.40;;;17.16;100.00;95490.00;646484;216;31482;-71
2022/08/21 06:16:10;;;;;;;0.50;0.43;;;16.50;1.40;;;17.26;100.00;95494.67;637842;216;31701;-72
2022/08/21 06:18:52;;;;;;;0.50;0.40;;;16.50;1.40;;;17.33;100.00;95493.34;647035;216;31569;-71
2022/08/21 06:21:33;;;;;;;0.73;0.43;;;16.60;1.40;;;17.40;100.00;95498.95;647558;216;31480;-71
2022/08/21 06:24:15;;;;;;;0.60;0.60;;;16.70;1.40;;;17.42;100.00;95498.30;647730;216;31463;-71
2022/08/21 06:26:57;;;;;;;0.43;0.35;;;16.70;1.40;;;17.50;100.00;95503.84;647660;216;32608;-72
2022/08/21 06:29:39;;;;;;;0.47;0.40;;;16.80;1.40;;;17.54;100.00;95507.85;616718;222;31840;-71
2022/08/21 06:32:20;;;;;;;0.45;0.32;;;16.80;1.40;;;17.59;100.00;95508.87;645992;212;31456;-71
2022/08/21 06:35:51;;;;;;;0.40;0.30;;;16.90;1.40;;;17.72;100.00;95500.84;645008;216;42371;-71
2022/08/21 06:38:33;;;;;;;0.60;0.60;;;16.90;1.40;;;17.70;100.00;95506.19;619421;225;32302;-72
2022/08/21 06:41:14;;;;;;;2.00;0.50;;;16.90;1.40;;;17.67;100.00;95506.76;647515;216;31555;-74
2022/08/21 06:43:56;;;;;;;0.40;0.40;;;16.90;1.40;;;17.81;100.00;95504.64;647277;212;31475;-71
2022/08/21 06:46:38;;;;;;;1.20;0.50;;;17.00;1.40;;;17.92;100.00;95506.94;647720;216;31666;-72
2022/08/21 06:49:20;;;;;;;1.65;0.50;;;17.20;1.40;;;17.98;100.00;95498.03;647543;216;31503;-73
2022/08/21 06:52:03;;;;;;;0.70;0.50;;;17.20;1.40;;;18.08;100.00;95498.09;619086;226;31870;-71
2022/08/21 06:54:45;;;;;;;0.60;0.50;;;17.20;1.40;;;18.13;100.00;95492.92;621265;225;31812;-72
2022/08/21 06:57:27;;;;;;;0.50;0.50;;;17.20;1.40;;;18.36;100.00;95494.13;645295;216;31514;-71
2022/08/21 07:00:10;;;;;;;1.10;1.00;;;17.50;1.40;;;18.41;100.00;95497.88;646167;216;31546;-70
2022/08/21 07:02:55;;;;;;;0.62;0.52;;;17.60;1.40;;;18.41;100.00;95498.05;646632;216;31467;-70
2022/08/21 07:05:37;;;;;;;0.65;0.60;;;17.50;1.40;;;18.48;100.00;95501.80;647159;216;31610;-70
2022/08/21 07:10:06;;;;;;;0.60;0.50;;;17.80;1.40;;;18.65;100.00;95496.48;647359;212;31502;-70
2022/08/21 07:12:47;;;;;;;0.60;0.50;;;17.90;1.40;;;18.68;100.00;95498.50;646959;216;31617;-70
2022/08/21 07:15:29;;;;;;;0.77;0.75;;;17.90;1.40;;;18.70;100.00;95496.48;645303;216;31517;-71
2022/08/21 07:18:14;;;;;;;0.70;0.70;;;18.00;1.40;;;18.99;100.00;95496.23;647135;216;31730;-70
2022/08/21 07:20:55;;;;;;;2.10;0.80;;;18.30;1.40;;;18.88;100.00;95502.09;646625;216;31840;-70
2022/08/21 07:23:38;;;;;;;0.95;0.77;;;18.10;1.40;;;19.07;100.00;95496.59;647999;216;42195;-70
2022/08/21 07:26:22;;;;;;;1.10;0.60;;;18.30;1.40;;;19.15;100.00;95499.47;621021;226;42509;-70
2022/08/21 07:29:03;;;;;;;1.10;0.80;;;18.40;1.40;;;19.26;100.00;95494.05;647754;212;31521;-70
2022/08/21 07:31:45;;;;;;;1.70;1.00;;;18.50;1.40;;;19.38;100.00;95489.23;645510;216;31844;-70
2022/08/21 07:35:51;;;;;;;6.10;0.73;;;18.70;1.40;;;19.46;100.00;95493.22;647958;212;31634;-70
2022/08/21 07:38:33;;;;;;;1.20;0.70;;;18.80;1.40;;;19.40;100.00;95493.11;646620;216;31640;-70
2022/08/21 07:41:17;;;;;;;1.70;1.17;;;18.60;1.40;;;19.71;100.00;95495.35;647416;212;42094;-70
2022/08/21 07:43:58;;;;;;;0.90;0.55;;;18.90;1.40;;;19.87;100.00;95496.37;646022;216;31761;-70
2022/08/21 07:46:40;;;;;;;1.17;1.00;;;19.10;1.40;;;19.79;100.00;95497.27;645850;216;31670;-70
2022/08/21 07:49:22;;;;;;;1.83;0.98;;;18.90;1.40;;;19.67;100.00;95500.00;646144;216;31543;-70
2022/08/21 07:52:03;;;;;;;3.10;1.10;;;18.90;1.40;;;19.93;100.00;95495.06;646322;216;31483;-70
2022/08/21 07:54:45;;;;;;;1.10;1.00;;;19.10;1.40;;;20.03;100.00;95492.25;646919;216;31475;-70
2022/08/21 07:57:27;;;;;;;0.70;0.70;;;19.10;1.40;;;19.94;100.00;95490.34;647699;216;31523;-70
2022/08/21 08:00:10;;;;;;;1.50;0.80;;;19.00;1.40;;;20.19;100.00;95486.67;645115;216;31590;-70
2022/08/21 08:02:52;;;;;;;1.23;0.90;;;19.30;1.40;;;20.37;100.00;95480.78;645565;216;31538;-70
2022/08/21 08:05:36;;;;;;;1.33;0.93;;;19.40;1.40;;;20.54;100.00;95483.70;648288;212;31496;-70
2022/08/21 08:08:15;;;;;;;1.10;0.65;;;19.70;1.40;;;20.61;100.00;95481.47;647843;216;31671;-70
2022/08/21 08:10:57;;;;;;;0.90;0.75;;;19.80;1.40;;;20.62;100.00;95477.25;646473;216;31855;-70
2022/08/21 08:13:40;;;;;;;1.40;1.05;;;19.70;1.40;;;20.76;100.00;95481.80;646822;212;31555;-71
2022/08/21 08:16:22;;;;;;;0.93;0.90;;;19.80;1.40;;;20.55;100.00;95484.36;627971;220;31886;-70
2022/08/21 08:19:03;;;;;;;1.30;0.85;;;19.60;1.40;;;20.44;100.00;95487.50;646690;216;31979;-70
2022/08/21 08:21:45;;;;;;;1.80;1.12;;;19.60;1.40;;;20.55;100.00;95485.47;645412;216;31552;-71
2022/08/21 08:24:27;;;;;;;1.30;0.97;;;19.80;1.40;;;21.01;100.00;95482.55;647083;212;42173;-70
2022/08/21 08:27:09;;;;;;;1.10;1.00;;;20.40;1.40;;;21.19;100.00;95484.37;644911;216;31576;-71
2022/08/21 08:29:51;;;;;;;2.47;1.45;;;20.50;1.40;;;21.07;100.00;95486.50;645621;212;32285;-71
2022/08/21 08:32:32;;;;;;;1.70;1.52;;;20.40;1.40;;;21.25;100.00;95483.30;648465;216;31631;-71
2022/08/21 08:35:51;;;;;;;1.60;1.10;;;20.50;1.40;;;21.52;100.00;95478.88;646498;216;42266;-71
2022/08/21 08:38:32;;;;;;;2.05;1.58;;;20.70;1.40;;;21.66;100.00;95477.64;646262;216;31717;-71
2022/08/21 08:41:17;;;;;;;3.17;1.55;;;20.80;1.40;;;21.81;100.00;95476.05;649799;216;31615;-70
2022/08/21 08:43:59;;;;;;;2.08;1.85;;;20.80;1.40;;;21.83;100.00;95480.46;645352;212;31703;-70
2022/08/21 08:46:42;;;;;;;1.70;1.60;;;20.90;1.40;;;22.08;100.00;95478.85;646310;212;31688;-70
2022/08/21 08:49:25;;;;;;;2.50;1.70;;;21.10;1.40;;;22.49;100.00;95469.12;647724;216;32093;-71
2022/08/21 08:52:08;;;;;;;1.80;1.50;;;21.80;1.40;;;22.84;100.00;95471.21;642402;219;31563;-71
2022/08/21 08:54:51;;;;;;;2.28;1.75;;;22.20;1.40;;;23.30;100.00;95476.66;647737;216;31544;-70
2022/08/21 08:57:32;;;;;;;2.00;1.40;;;22.70;1.40;;;23.27;100.00;95477.22;647828;216;31496;-70
2022/08/21 09:00:15;;;;;;;2.37;1.87;;;22.30;1.40;;;22.64;100.00;95478.38;647169;216;31534;-71
2022/08/21 09:02:59;;;;;;;1.60;1.50;;;21.60;1.40;;;22.74;100.00;95477.35;646894;212;32842;-70
2022/08/21 09:05:44;;;;;;;2.90;1.90;;;22.00;1.40;;;24.11;100.00;95472.70;645914;212;42133;-71
2022/08/21 09:08:54;;;;;;;2.10;1.70;;;26.40;1.40;;;25.46;92.84;95470.45;620299;226;31896;-70
2022/08/21 09:11:49;;;;;;;1.80;1.50;;;27.50;1.40;;;27.35;88.24;95461.22;647749;216;31523;-72
2022/08/21 09:14:54;;;;;;;1.87;1.50;;;29.00;1.40;;;27.59;82.81;95459.61;644002;216;32225;-71
2022/08/21 09:17:40;;;;;;;1.77;1.27;;;28.80;1.40;;;29.49;79.10;95449.98;649477;216;31573;-71
2022/08/21 09:20:27;;;;;;;1.60;1.50;;;30.40;1.40;;;31.06;76.61;95452.34;647956;212;31575;-71
2022/08/21 09:23:30;;;;;;;1.55;1.40;;;32.30;1.40;;;31.77;68.87;95440.72;647268;216;31653;-71
2022/08/21 09:26:14;;;;;;;1.73;1.50;;;31.30;1.40;;;29.43;72.58;95449.31;646236;216;31623;-71
2022/08/21 09:28:56;;;;;;;1.90;1.80;;;28.90;1.40;;;28.50;80.95;95451.01;648963;216;32083;-71
2022/08/21 09:31:37;;;;;;;1.65;1.40;;;24.90;1.40;;;26.63;88.30;95456.80;644273;215;32104;-71
2022/08/21 09:35:53;;;;;;;1.30;1.20;;;22.90;1.40;;;27.38;89.10;95448.28;644895;216;31577;-71
2022/08/21 09:38:34;;;;;;;1.60;1.50;;;27.00;1.40;;;28.74;80.62;95441.48;645141;216;42197;-71
2022/08/21 09:41:16;;;;;;;1.60;1.50;;;28.60;1.40;;;29.34;77.69;95439.34;646982;216;42291;-71
2022/08/21 09:43:58;;;;;;;1.62;1.30;;;29.40;1.40;;;28.44;76.10;95436.95;646645;216;32318;-70
2022/08/21 09:46:39;;;;;;;2.22;1.08;;;25.70;1.40;;;28.29;79.49;95442.12;647398;216;31620;-71
2022/08/21 09:51:55;;;;;;;1.40;1.30;;;29.50;1.40;;;29.47;73.81;95435.31;648371;216;31588;-70
2022/08/21 09:54:37;;;;;;;3.20;1.50;;;26.60;1.40;;;27.64;79.26;95438.16;646268;216;31576;-71
2022/08/21 10:00:20;;;;;;;1.92;1.30;;;24.30;1.40;;;27.48;85.36;95436.70;646396;212;32122;-70
2022/08/21 10:03:10;;;;;;;1.20;1.10;;;24.20;1.40;;;26.89;86.51;95432.92;646081;216;31825;-71
2022/08/21 10:08:30;;;;;;;1.35;1.25;;;22.60;1.40;;;24.51;100.00;95442.85;647751;216;32442;-70
2022/08/21 10:11:13;;;;;;;1.20;1.10;;;22.30;1.40;;;23.93;100.00;95436.47;646522;216;31567;-70
2022/08/21 10:14:00;;;;;;;1.48;1.37;;;22.00;1.40;;;24.85;100.00;95434.70;647588;216;31555;-71
2022/08/21 10:16:52;;;;;;;1.62;1.30;;;24.10;1.40;;;27.23;92.92;95425.88;645516;216;31570;-70
2022/08/21 10:20:02;;;;;;;1.20;1.00;;;29.00;1.40;;;30.41;74.62;95429.16;647065;216;31572;-70
2022/08/21 10:22:44;;;;;;;1.60;1.20;;;31.80;1.40;;;32.77;61.82;95421.23;647050;216;31583;-71
2022/08/21 10:25:32;;;;;;;1.95;1.33;;;32.50;1.40;;;32.58;58.82;95419.03;618761;226;32070;-71
2022/08/21 10:31:34;;;;;;;1.50;1.40;;;34.80;1.40;;;35.53;51.02;95401.48;645353;216;32366;-71
2022/08/21 10:36:03;;;;;;;1.15;0.90;;;31.80;1.40;;;32.80;54.68;95404.80;644919;216;31595;-71
2022/08/21 10:41:28;;;;;;;1.37;1.27;;;32.40;1.40;;;35.69;51.81;95396.63;631929;221;32423;-71
2022/08/21 10:44:38;;;;;;;1.35;1.25;;;33.60;1.40;;;34.11;50.23;95397.13;646621;216;31578;-72
2022/08/21 10:47:36;;;;;;;1.33;1.23;;;30.10;1.40;;;32.03;54.16;95404.31;646924;216;31550;-71
2022/08/21 10:50:29;;;;;;;1.20;1.10;;;30.40;1.40;;;33.68;50.54;95401.52;644016;216;31811;-71
2022/08/21 10:56:12;;;;;;;1.25;1.15;;;31.50;1.40;;;33.88;48.00;95392.88;647443;216;31603;-71
2022/08/21 10:59:17;;;;;;;1.30;1.20;;;29.00;1.40;;;33.32;52.09;95395.67;645722;212;32042;-70
2022/08/21 11:02:20;;;;;;;1.58;1.20;;;30.80;1.40;;;33.97;49.96;95393.16;647882;216;31583;-71
2022/08/21 11:07:36;;;;;;;1.30;1.20;;;29.70;1.40;;;33.46;51.61;95386.79;646448;216;31503;-71
2022/08/21 11:10:22;;;;;;;1.50;1.40;;;28.50;1.40;;;33.90;51.73;95379.24;646142;216;31687;-71
2022/08/21 11:13:06;;;;;;;2.00;1.40;;;28.60;1.40;;;32.62;54.27;95384.52;645717;216;31503;-71
2022/08/21 11:15:52;;;;;;;1.90;1.20;;;29.80;1.40;;;32.47;52.07;95383.77;647727;216;32265;-71
2022/08/21 11:18:35;;;;;;;0.90;0.90;;;26.90;1.40;;;30.29;54.36;95388.09;647941;216;32400;-71
2022/08/21 11:21:27;;;;;;;1.92;1.23;;;27.80;1.40;;;33.01;47.91;95373.59;646482;212;32141;-70
2022/08/21 11:24:16;;;;;;;1.05;1.00;;;31.10;1.40;;;34.99;44.95;95375.77;645680;212;31594;-70
2022/08/21 11:27:02;;;;;;;1.10;1.00;;;32.60;1.40;;;36.29;42.71;95367.47;647135;216;31750;-71
2022/08/21 11:29:43;;;;;;;0.98;0.88;;;33.70;1.40;;;38.79;39.74;95359.17;647841;216;31558;-71
2022/08/21 11:32:31;;;;;;;2.15;1.40;;;34.60;1.40;;;35.75;40.91;95367.28;648451;212;31887;-70
2022/08/21 11:35:52;;;;;;;1.33;1.23;;;32.80;1.40;;;34.16;43.65;95366.12;646176;216;31664;-71
2022/08/21 11:38:40;;;;;;;1.10;1.00;;;31.50;1.40;;;37.32;43.12;95358.19;645948;216;31581;-71
2022/08/21 11:41:29;;;;;;;1.23;1.10;;;32.80;1.40;;;40.09;36.08;95352.02;647229;213;31515;-70
2022/08/21 11:44:17;;;;;;;1.30;1.10;;;34.80;1.40;;;39.78;38.65;95348.90;616849;226;32052;-70
2022/08/21 11:50:08;;;;;;;2.00;1.30;;;33.50;1.40;;;39.89;40.11;95354.12;646044;212;31511;-72
2022/08/21 11:52:55;;;;;;;1.30;1.13;;;32.70;1.40;;;37.46;40.52;95353.86;645997;212;31589;-72
2022/08/21 11:55:41;;;;;;;1.20;1.10;;;29.60;1.40;;;34.01;43.08;95366.66;647560;216;35490;-71
2022/08/21 11:58:24;;;;;;;1.55;1.17;;;28.10;1.40;;;33.60;42.30;95360.26;649060;216;31536;-71
2022/08/21 12:01:06;;;;;;;1.35;1.20;;;27.60;1.40;;;32.77;43.91;95360.39;644490;216;31521;-70
2022/08/21 12:03:57;;;;;;;1.45;1.15;;;26.90;1.40;;;30.36;47.00;95361.22;648796;216;32041;-71
2022/08/21 12:06:40;;;;;;;2.70;1.20;;;25.70;1.40;;;30.05;48.41;95361.02;646380;212;31666;-71
2022/08/21 12:09:36;;;;;;;1.98;1.08;;;25.50;1.40;;;28.84;53.73;95352.43;645592;212;42371;-71
2022/08/21 12:12:26;;;;;;;2.15;1.25;;;26.60;1.40;;;33.13;45.83;95348.09;647530;216;31853;-71